createdAt,value
2018-06-24T00:00:58.252Z,6.73
2018-06-24T00:05:51.169Z,8.73
2018-06-24T00:10:44.319Z,6.80
2018-06-24T00:15:37.377Z,5.80
2018-06-24T00:20:30.583Z,5.33
2018-06-24T00:25:23.600Z,5.53
2018-06-24T00:30:16.580Z,5.80
2018-06-24T00:35:09.738Z,6.57
2018-06-24T00:40:02.840Z,4.53
2018-06-24T00:44:55.974Z,6.83
2018-06-24T00:49:48.913Z,5.77
2018-06-24T00:54:41.949Z,5.90
2018-06-24T00:59:52.000Z,5.13
2018-06-24T01:04:45.091Z,5.33
2018-06-24T01:09:38.011Z,4.80
2018-06-24T01:14:31.050Z,4.57
2018-06-24T01:19:24.224Z,4.37
2018-06-24T01:24:17.224Z,4.23
2018-06-24T01:29:10.381Z,7.50
2018-06-24T01:34:03.478Z,5.07
2018-06-24T01:38:56.478Z,3.93
2018-06-24T01:43:49.547Z,6.20
2018-06-24T01:48:42.629Z,4.13
2018-06-24T01:53:35.602Z,5.30
2018-06-24T01:58:28.609Z,10.57
2018-06-24T02:03:21.722Z,4.67
2018-06-24T02:08:14.810Z,4.73
2018-06-24T02:13:07.785Z,8.57
2018-06-24T02:18:00.856Z,4.20
2018-06-24T02:22:53.891Z,6.33
2018-06-24T02:27:46.990Z,4.60
2018-06-24T02:32:40.069Z,7.70
2018-06-24T02:37:33.205Z,5.23
2018-06-24T02:42:26.194Z,6.53
2018-06-24T02:47:19.365Z,7.70
2018-06-24T02:52:12.571Z,6.40
2018-06-24T02:57:05.797Z,7.77
2018-06-24T03:01:58.860Z,5.23
2018-06-24T03:06:51.928Z,7.03
2018-06-24T03:11:45.004Z,7.57
2018-06-24T03:16:38.021Z,5.43
2018-06-24T03:21:31.169Z,8.53
2018-06-24T03:26:24.202Z,7.53
2018-06-24T03:31:17.221Z,8.60
2018-06-24T03:36:10.249Z,10.03
2018-06-24T03:41:03.360Z,9.97
2018-06-24T03:45:56.449Z,9.23
2018-06-24T03:50:49.557Z,14.27
2018-06-24T03:55:43.037Z,9.37
2018-06-24T04:00:36.109Z,8.70
2018-06-24T04:05:29.206Z,11.13
2018-06-24T04:10:22.319Z,11.07
2018-06-24T04:15:15.267Z,10.03
2018-06-24T04:20:08.274Z,9.27
2018-06-24T04:25:01.311Z,8.90
2018-06-24T04:29:54.367Z,9.87
2018-06-24T04:34:47.383Z,14.70
2018-06-24T04:39:40.607Z,8.20
2018-06-24T04:44:33.558Z,11.53
2018-06-24T04:49:26.664Z,10.17
2018-06-24T04:54:19.633Z,9.87
2018-06-24T04:59:12.831Z,13.57
2018-06-24T05:04:05.836Z,17.47
2018-06-24T05:08:59.013Z,16.87
2018-06-24T05:13:51.976Z,13.73
2018-06-24T05:18:45.057Z,15.50
2018-06-24T05:23:38.141Z,17.83
2018-06-24T05:28:31.218Z,17.07
2018-06-24T05:33:25.223Z,18.03
2018-06-24T05:38:18.258Z,16.40
2018-06-24T05:43:11.386Z,19.57
2018-06-24T05:48:04.782Z,18.50
2018-06-24T05:52:57.854Z,15.13
2018-06-24T05:57:50.849Z,17.40
2018-06-24T06:02:44.030Z,16.33
2018-06-24T06:07:37.092Z,15.37
2018-06-24T06:12:30.237Z,16.00
2018-06-24T06:17:23.271Z,12.73
2018-06-24T06:22:16.299Z,14.57
2018-06-24T06:27:09.408Z,13.20
2018-06-24T06:32:02.543Z,18.10
2018-06-24T06:36:55.586Z,14.27
2018-06-24T06:41:48.658Z,13.33
2018-06-24T06:46:41.750Z,11.13
2018-06-24T06:51:34.873Z,14.13
2018-06-24T06:56:27.851Z,11.53
2018-06-24T07:01:20.831Z,13.03
2018-06-24T07:06:13.993Z,10.17
2018-06-24T07:11:07.019Z,13.33
2018-06-24T07:16:00.143Z,12.97
2018-06-24T07:20:53.647Z,9.80
2018-06-24T07:25:46.547Z,12.67
2018-06-24T07:30:39.678Z,11.60
2018-06-24T07:35:32.672Z,10.83
2018-06-24T07:40:25.737Z,9.77
2018-06-24T07:45:18.904Z,10.17
2018-06-24T07:50:12.004Z,13.63
2018-06-24T07:55:05.352Z,7.43
2018-06-24T07:59:58.470Z,9.07
2018-06-24T08:04:51.615Z,8.37
2018-06-24T08:09:44.656Z,9.27
2018-06-24T08:14:37.731Z,8.80
2018-06-24T08:19:30.837Z,9.67
2018-06-24T08:24:23.840Z,9.57
2018-06-24T08:29:16.998Z,6.97
2018-06-24T08:34:10.012Z,8.63
2018-06-24T08:39:03.530Z,8.17
2018-06-24T08:43:56.639Z,8.50
2018-06-24T08:48:49.748Z,11.00
2018-06-24T08:53:42.815Z,8.87
2018-06-24T08:58:36.094Z,8.43
2018-06-24T09:03:29.055Z,7.83
2018-06-24T09:08:22.070Z,7.70
2018-06-24T09:13:15.228Z,7.27
2018-06-24T09:18:08.309Z,8.60
2018-06-24T09:23:01.318Z,6.40
2018-06-24T09:27:54.389Z,8.40
2018-06-24T09:32:47.387Z,7.80
2018-06-24T09:37:40.466Z,7.67
2018-06-24T09:42:33.499Z,5.97
2018-06-24T09:47:26.542Z,7.03
2018-06-24T09:52:19.716Z,5.63
2018-06-24T09:57:12.760Z,6.97
2018-06-24T10:02:05.958Z,7.57
2018-06-24T10:06:58.985Z,5.93
2018-06-24T10:11:52.011Z,6.07
2018-06-24T10:16:45.321Z,8.03
2018-06-24T10:21:38.384Z,6.40
2018-06-24T10:26:31.379Z,5.63
2018-06-24T10:31:24.405Z,6.77
2018-06-24T10:36:17.342Z,6.63
2018-06-24T10:41:10.740Z,5.03
2018-06-24T10:46:03.875Z,3.73
2018-06-24T10:50:56.984Z,7.37
2018-06-24T10:55:49.983Z,4.67
2018-06-24T11:00:42.938Z,7.23
2018-06-24T11:05:35.893Z,3.97
2018-06-24T11:10:28.922Z,4.80
2018-06-24T11:15:21.952Z,4.03
2018-06-24T11:20:14.930Z,3.50
2018-06-24T11:25:07.946Z,4.40
2018-06-24T11:30:00.994Z,5.23
2018-06-24T11:34:53.947Z,3.70
2018-06-24T11:39:46.942Z,3.13
2018-06-24T11:44:39.908Z,3.37
2018-06-24T11:49:32.948Z,3.50
2018-06-24T11:54:26.151Z,4.63
2018-06-24T11:59:19.215Z,8.07
2018-06-24T12:04:12.375Z,4.47
2018-06-24T12:09:10.885Z,2.93
2018-06-24T12:14:03.925Z,4.30
2018-06-24T12:18:56.819Z,4.23
2018-06-24T12:23:49.729Z,6.27
2018-06-24T12:28:42.726Z,4.60
2018-06-24T12:33:35.724Z,4.37
2018-06-24T12:38:28.872Z,4.27
2018-06-24T12:43:21.910Z,4.27
2018-06-24T12:48:14.992Z,5.87
2018-06-24T12:53:08.093Z,5.40
2018-06-24T12:58:01.132Z,3.70
2018-06-24T13:02:54.208Z,3.80
2018-06-24T13:07:47.258Z,4.53
2018-06-24T13:12:40.349Z,5.57
2018-06-24T13:17:33.362Z,8.13
2018-06-24T13:22:26.437Z,8.80
2018-06-24T13:27:19.434Z,11.13
2018-06-24T13:32:12.534Z,7.33
2018-06-24T13:37:05.532Z,4.50
2018-06-24T13:41:58.579Z,4.77
2018-06-24T13:46:51.702Z,6.07
2018-06-24T13:51:44.816Z,6.17
2018-06-24T13:56:37.819Z,6.87
2018-06-24T14:01:30.823Z,6.37
2018-06-24T14:06:23.840Z,5.57
2018-06-24T14:11:16.880Z,8.73
2018-06-24T14:16:10.098Z,8.53
2018-06-24T14:21:03.187Z,5.47
2018-06-24T14:25:56.347Z,8.47
2018-06-24T14:30:49.485Z,6.80
2018-06-24T14:35:42.457Z,6.17
2018-06-24T14:40:35.440Z,5.63
2018-06-24T14:45:28.571Z,4.13
2018-06-24T14:50:21.681Z,5.10
2018-06-24T14:55:14.765Z,4.07
2018-06-24T15:00:08.843Z,3.97
2018-06-24T15:05:02.478Z,4.33
2018-06-24T15:09:55.506Z,3.40
2018-06-24T15:14:48.636Z,3.87
2018-06-24T15:19:41.641Z,6.27
2018-06-24T15:24:34.671Z,4.87
2018-06-24T15:29:27.876Z,6.23
2018-06-24T15:34:20.889Z,3.60
2018-06-24T15:39:13.952Z,4.20
2018-06-24T15:44:07.088Z,3.73
2018-06-24T15:49:00.129Z,4.17
2018-06-24T15:53:53.185Z,6.33
2018-06-24T15:58:46.153Z,4.83
2018-06-24T16:03:39.196Z,4.83
2018-06-24T16:08:32.258Z,6.90
2018-06-24T16:13:25.479Z,6.87
2018-06-24T16:18:18.481Z,5.77
2018-06-24T16:23:11.547Z,4.97
2018-06-24T16:28:05.223Z,7.20
2018-06-24T16:32:58.329Z,5.37
2018-06-24T16:37:51.332Z,6.90
2018-06-24T16:42:44.436Z,6.03
2018-06-24T16:47:37.459Z,6.07
2018-06-24T16:52:30.613Z,6.30
2018-06-24T16:57:23.640Z,8.73
2018-06-24T17:02:16.756Z,6.93
2018-06-24T17:07:09.867Z,9.63
2018-06-24T17:12:02.811Z,7.33
2018-06-24T17:16:55.866Z,7.93
2018-06-24T17:21:49.068Z,6.30
2018-06-24T17:26:42.267Z,3.50
2018-06-24T17:31:35.370Z,4.80
2018-06-24T17:36:28.543Z,4.50
2018-06-24T17:41:21.695Z,3.50
2018-06-24T17:46:14.864Z,3.07
2018-06-24T17:51:08.026Z,3.17
2018-06-24T17:56:01.132Z,3.70
2018-06-24T18:00:54.171Z,3.43
2018-06-24T18:05:47.280Z,4.70
2018-06-24T18:10:40.379Z,6.67
2018-06-24T18:15:33.508Z,7.73
2018-06-24T18:20:26.998Z,5.33
2018-06-24T18:25:19.970Z,5.67
2018-06-24T18:30:12.997Z,4.73
2018-06-24T18:35:06.143Z,10.67
2018-06-24T18:39:59.128Z,7.37
2018-06-24T18:44:52.169Z,6.30
2018-06-24T18:49:45.105Z,5.10
2018-06-24T18:54:38.311Z,4.27
2018-06-24T18:59:31.506Z,6.33
2018-06-24T19:04:24.519Z,6.37
2018-06-24T19:09:17.631Z,5.93
2018-06-24T19:14:10.648Z,5.50
2018-06-24T19:19:03.916Z,4.07
2018-06-24T19:23:56.958Z,4.93
2018-06-24T19:28:49.968Z,4.00
2018-06-24T19:33:42.949Z,7.30
2018-06-24T19:38:36.132Z,5.03
2018-06-24T19:43:29.201Z,7.33
2018-06-24T19:48:22.174Z,4.10
2018-06-24T19:53:15.183Z,4.80
2018-06-24T19:58:08.157Z,4.27
2018-06-24T20:03:01.131Z,5.47
2018-06-24T20:07:54.099Z,6.93
2018-06-24T20:12:47.135Z,4.80
2018-06-24T20:17:40.065Z,5.53
2018-06-24T20:22:33.201Z,6.50
2018-06-24T20:27:26.794Z,6.40
2018-06-24T20:32:20.387Z,8.90
2018-06-24T20:37:13.399Z,5.47
2018-06-24T20:42:06.441Z,5.97
2018-06-24T20:46:59.508Z,6.23
2018-06-24T20:51:52.609Z,8.13
2018-06-24T20:56:46.125Z,10.70
2018-06-24T21:01:39.379Z,8.43
2018-06-24T21:06:32.519Z,9.27
2018-06-24T21:11:25.533Z,7.07
2018-06-24T21:16:18.576Z,6.43
2018-06-24T21:21:11.672Z,9.03
2018-06-24T21:26:04.932Z,11.30
2018-06-24T21:30:58.011Z,6.87
2018-06-24T21:35:51.098Z,8.90
2018-06-24T21:40:44.130Z,7.47
2018-06-24T21:45:37.173Z,5.90
2018-06-24T21:50:30.223Z,8.00
2018-06-24T21:55:23.185Z,6.30
2018-06-24T22:00:16.288Z,7.30
2018-06-24T22:05:09.359Z,5.23
2018-06-24T22:10:02.728Z,6.23
2018-06-24T22:14:55.731Z,7.00
2018-06-24T22:19:49.536Z,5.70
2018-06-24T22:24:42.592Z,5.50
2018-06-24T22:29:35.583Z,5.60
2018-06-24T22:34:28.655Z,5.90
2018-06-24T22:39:21.645Z,7.57
2018-06-24T22:44:14.691Z,8.40
2018-06-24T22:49:07.705Z,7.20
2018-06-24T22:54:00.776Z,7.13
2018-06-24T22:59:10.827Z,7.53
2018-06-24T23:04:03.917Z,10.93
2018-06-24T23:08:57.421Z,7.93
2018-06-24T23:13:50.444Z,8.97
2018-06-24T23:18:43.429Z,9.50
2018-06-24T23:23:36.454Z,9.30
2018-06-24T23:28:29.507Z,8.23
2018-06-24T23:33:22.493Z,9.27
2018-06-24T23:38:15.601Z,10.03
2018-06-24T23:43:08.598Z,8.60
2018-06-24T23:48:01.666Z,9.87
2018-06-24T23:52:54.747Z,10.93
2018-06-24T23:57:47.780Z,7.73
